Sagehen Creek Weather observations

Data are for observation ending at time listed.
 Day   Time    Ave.   Ave.  Ave.  Vector   Max.   Stn.    Total    Solar   Ave.  
  of    of     Air    Rel.  Wind   Wind    Wind   Baro.  Precip.   Rad.    Soil  
Year   Day     Temp.  Hum.  Speed  Dir.    Gust   Pres.                    Temp. 
2015   (PST)    F      %     mph   deg.    mph     mb.     in.     W/m2     F   
------------------------------------------------------------------------------
 212    6:00   48.7    74    0.5   256      1.7   841.1   17.71      34    999.0
 212    6:10   49.2    76    0.4   244      1.2   841.5   17.71      44    999.0
 212    6:20   49.9    75    0.8   347      2.2   841.5   17.71      52    999.0
 212    6:30   50.7    75    0.7   286      2.0   841.5   17.71      57    999.0
 212    6:40   51.4    75    0.8   254      1.9   841.3   17.71      53    999.0
 212    6:50   51.7    76    0.1   117      0.8   841.5   17.71      46    999.0
 212    7:00   51.9    76    0.3   257      1.4   841.7   17.71      42    999.0
 212    7:10   52.1    78    0.1   278      1.3   841.3   17.71      44    999.0
 212    7:20   52.4    78    0.0     0      0.0   841.4   17.71      41    999.0
 212    7:30   52.8    79    0.0     0      0.0   841.4   17.71      56    999.0
 212    7:40   53.5    80    0.3   285      1.1   841.7   17.71     124    999.0
 212    7:50   55.1    77    0.0     0      0.0   841.6   17.71     220    999.0
 212    8:00   59.2    68    0.4   238      1.9   841.4   17.72     567    999.0
 212    8:10   65.3    47    0.7   260      2.1   841.2   17.71     449    999.0
 212    8:20   67.0    47    0.5    58      1.8   841.3   17.71     239    999.0
 212    8:30   66.8    44    2.5    65      6.0   841.4   17.70     228    999.0
 212    8:40   49.5    21    0.9    52      1.9     0.0   17.70     378    999.0
 212    8:50   67.4    44    1.6    88      3.5   434.7   17.70     308    999.0
 212    9:00   68.1    47    0.5   150      1.7   841.4   17.70     219    999.0
 212    9:10   68.1    50    0.6   104      1.7   841.6   17.70     225    999.0
 212    9:20   69.1    46    1.2    83      2.9   841.6   17.70     344    999.0
 212    9:30   70.1    44    0.3   191      0.9   841.7   17.70     321    999.0
 212    9:40   71.2    39    0.1   188      0.6   841.1   17.70     397    999.0
 212    9:50   72.9    43    1.6    90      3.5   841.3   17.70     526    999.0
 212   10:00   73.9    37    3.8    92      7.9   841.4   17.70     636    999.0
 212   10:10   73.8    37    1.9    80      6.8   841.2   17.70     450    999.0
 212   10:20   74.6    35    2.1    97      5.5   841.4   17.70     628    999.0
 212   10:30   75.4    34    2.0    97      5.1   841.6   17.70     554    999.0
 212   10:40   76.0    32    1.7   176      3.1   841.4   17.70     396    999.0
 212   10:50   76.8    30    1.3    79      3.2   841.3   17.69     649    999.0
 212   11:00   78.7    26    1.2   139      2.9   841.2   17.69     583    999.0
 212   11:10   78.2    27    1.3    85      2.9   841.2   17.70     576    999.0
 212   11:20   79.4    24    1.2    82      4.8   841.3   17.69     746    999.0
 212   11:30   80.5    23    2.8    86      7.0   841.4   17.69     962    999.0
 212   11:40   79.6    24    2.3   127      5.5   841.2   17.69     699    999.0
 212   11:50   81.1    24    3.0   131      8.0   841.2   17.69    1041    999.0
 212   12:00   82.3    23    1.5   122      4.0   841.1   17.69     962    999.0
 212   12:10   81.6    22    4.2    87      8.8   840.9   17.69     421    999.0
 212   12:20   78.3    25    3.4   108      8.6   841.0   17.69     125    999.0
 212   12:30   76.7    25    3.3    89     10.7   841.1   17.69      82    999.0
 212   12:40   75.4    25    3.3    98     11.4   841.2   17.70      60    999.0
 212   12:50   74.2    28    1.8   128      7.5   841.3   17.70      96    999.0
 212   13:00   73.9    29    2.9   103     10.6   841.5   17.70     147    999.0
 212   13:10   73.9    25    2.6    98      9.8   841.7   17.70     196    999.0
 212   13:20   74.4    27    1.2   228      4.2   841.9   17.70     207    999.0
 212   13:30   74.0    25    3.6   113     11.5   842.1   17.70     119    999.0
 212   13:40   73.2    25    2.8   188     13.1   842.1   17.70      77    999.0
 212   13:50   71.4    30    3.0   117      9.0   842.1   17.70      61    999.0
 212   14:00   68.3    43    1.4   325      2.8   842.1   17.70      67    999.0
 212   14:10   67.0    50    1.4   275      2.3   842.1   17.70     107    999.0
 212   14:20   67.0    46    0.7   251      2.1   841.8   17.70      97    999.0
 212   14:30   67.5    47    0.6   194      1.4   841.4   17.71      86    999.0
 212   14:40   67.7    48    0.2   206      0.9   841.6   17.70      84    999.0
 212   14:50   67.8    49    0.8   202      2.2   841.2   17.70      85    999.0
 212   15:00   67.8    51    0.4   204      1.6   841.0   17.70     111    999.0
 212   15:10   68.2    49    0.5   214      2.1   841.2   17.70     144    999.0
 212   15:20   68.8    46    0.9   209      2.2   841.0   17.70     150    999.0
 212   15:30   69.5    42    0.7   198      1.6   840.9   17.71     132    999.0
 212   15:40   69.6    43    0.3   194      1.7   840.6   17.70     133    999.0
 212   15:50   69.5    41    0.7   214      4.3   840.8   17.70      99    999.0
 212   16:00   69.1    44    0.8   187      2.7   840.9   17.70     106    999.0
 212   16:10   69.2    40    0.9   195      2.2   840.8   17.70     139    999.0
 212   16:20   70.0    39    0.6   181      2.5   840.5   17.70     171    999.0
 212   16:30   70.9    40    0.5   177      2.3   840.3   17.70     159    999.0
 212   16:40   70.8    38    0.7   191      1.9   840.7   17.70     100    999.0
 212   16:50   70.1    42    0.1   152      1.1   840.4   17.70      59    999.0
 212   17:00   69.4    50    0.0   153      0.6   840.2   17.70      64    999.0
 212   17:10   68.3    53    0.0     0      0.0   840.5   17.70      58    999.0
 212   17:20   67.8    56    0.5    90      2.1   840.3   17.70      71    999.0
 212   17:30   67.2    58    0.7   195      2.1   840.1   17.70      95    999.0
 212   17:40   67.6    52    0.4   171      1.8   840.2   17.69     121    999.0
 212   17:50   69.2    52    0.0    84      0.6   840.3   17.69     106    999.0
 212   18:00   69.8    52    0.0   148      0.7   840.3   17.70      73    999.0
 212   18:10   69.2    49    0.1   213      0.6   839.7   17.70      60    999.0
 212   18:20   68.0    54    0.0     0      0.0   840.0   17.70      46    999.0
 212   18:30   67.0    59    0.0     0      0.0   840.2   17.70      41    999.0
 212   18:40   66.5    63    0.2   239      0.9   840.0   17.70      32    999.0
 212   18:50   65.4    66    0.1   261      0.9   839.8   17.70      18    999.0
 212   19:00   64.1    65    0.1   225      0.7   839.7   17.71       9    999.0
 212   19:10   62.6    66    0.4   275      1.1   840.1   17.71       4    999.0
 212   19:20   61.3    69    0.1   227      0.8   840.1   17.71       2    999.0
 212   19:30   59.9    68    0.4   258      0.9   840.1   17.71       1    999.0
 212   19:40   58.4    72    0.0     0      0.0   840.2   17.71       0    999.0
 212   19:50   57.1    73    0.2   261      1.1   840.1   17.71       0    999.0
 212   20:00   56.4    70    0.3   238      1.1   840.0   17.71       0    999.0
 212   20:10   55.4    70    0.2   228      0.8   840.2   17.71       0    999.0
 212   20:20   54.5    68    0.2   247      1.0   840.3   17.71       0    999.0
 212   20:30   53.8    68    0.0   228      0.5   840.3   17.71       0    999.0
 212   20:40   53.1    67    0.6   221      0.8   840.3   17.71       0    999.0
 212   20:50   52.5    68    0.5   248      1.3   840.2   17.71       0    999.0
 212   21:00   51.9    68    0.4   205      1.3   840.2   17.71       0    999.0
 212   21:10   51.4    68    0.5   250      1.2   839.9   17.71       0    999.0
 212   21:20   51.0    70    0.1   250      1.0   840.1   17.71       0    999.0
 212   21:30   51.0    68    0.7   256      1.1   840.3   17.71       0    999.0
 212   21:40   51.0    70    0.0   234      0.3   840.3   17.71       0    999.0
 212   21:50   50.7    70    0.4   256      1.0   840.1   17.71       0    999.0
 212   22:00   50.5    70    0.4   262      0.7   839.9   17.71       0    999.0
 212   22:10   50.3    72    0.3   254      1.4   840.2   17.71       0    999.0
 212   22:20   50.3    72    0.5   246      1.0   840.3   17.71       0    999.0
 212   22:30   50.3    73    0.1   257      0.6   840.3   17.71       0    999.0
 212   22:40   50.3    74    0.7   270      1.4   839.8   17.71       0    999.0
 212   22:50   50.3    74    0.4   247      1.2   840.0   17.71       0    999.0
 212   23:00   50.0    73    0.6   255      1.2   840.2   17.71       0    999.0
 212   23:10   49.7    73    0.6   261      1.4   839.9   17.71       0    999.0
 212   23:20   49.3    73    0.6   260      1.3   839.9   17.71       0    999.0
 212   23:30   48.8    74    0.5   260      1.2   839.9   17.71       0    999.0
 212   23:40   48.9    74    0.2   259      1.0   840.2   17.71       0    999.0
 212   23:50   49.1    74    0.6   262      0.8   839.9   17.71       0    999.0
 213    0:00   49.5    73    0.3   262      0.9   839.6   17.71       0    999.0
 213    0:10   49.7    73    0.7   263      1.2   839.9   17.71       0    999.0
 213    0:20   49.6    74    0.1   258      0.5   839.9   17.71       0    999.0
 213    0:30   49.4    74    0.2   263      0.7   839.9   17.71       0    999.0
 213    0:40   49.1    74    0.4   266      1.0   839.6   17.71       0    999.0
 213    0:50   48.5    76    0.3   263      0.8   839.5   17.71       0    999.0
 213    1:00   47.8    77    0.2   260      0.8   839.4   17.71       0    999.0
 213    1:10   47.6    78    0.8   278      1.1   839.2   17.71       0    999.0
 213    1:20   47.4    78    0.5   261      1.1   839.4   17.71       0    999.0
 213    1:30   47.0    80    0.1   259      0.8   839.6   17.71       0    999.0
 213    1:40   46.7    80    0.4   260      0.9   839.3   17.71       0    999.0
 213    1:50   46.5    80    0.1   258      0.4   839.4   17.71       0    999.0
 213    2:00   46.5    80    0.5   258      1.3   839.5   17.71       0    999.0
 213    2:10   46.8    80    0.6   251      1.4   839.5   17.71       0    999.0
 213    2:20   47.2    80    0.2   267      0.7   839.4   17.71       0    999.0
 213    2:30   47.5    78    0.8   275      1.1   839.2   17.71       0    999.0
 213    2:40   47.9    78    0.6   278      1.1   839.4   17.71       0    999.0
 213    2:50   48.0    78    0.0     0      0.0   839.2   17.71       0    999.0
 213    3:00   48.2    76    0.6   259      1.1   839.0   17.71       0    999.0
 213    3:10   48.2    78    0.0   256      0.5   839.4   17.71       0    999.0
 213    3:20   48.3    76    0.1   264      0.9   839.1   17.71       0    999.0
 213    3:30   48.3    75    0.5   263      1.2   838.8   17.71       0    999.0
 213    3:40   48.0    76    0.3   255      0.8   839.2   17.71       0    999.0
 213    3:50   47.7    78    0.0   260      0.5   839.1   17.71       0    999.0
 213    4:00   47.4    79    0.3   262      0.9   839.0   17.71       0    999.0
 213    4:10   46.9    79    0.1   259      1.0   839.0   17.71       0    999.0
 213    4:20   46.6    81    0.4   271      1.1   839.2   17.71       0    999.0
 213    4:30   46.5    82    0.2   267      0.7   839.4   17.71       0    999.0
 213    4:40   46.8    80    0.4   292      1.1   839.0   17.71       0    999.0
 213    4:50   47.0    80    0.0   265      0.6   839.2   17.71       0    999.0
 213    5:00   47.0    80    0.0     0      0.0   839.5   17.71       1    999.0
 213    5:10   46.9    81    0.2   261      0.6   839.1   17.71       2    999.0
 213    5:20   46.9    82    0.2   254      1.0   839.3   17.71       5    999.0
 213    5:30   47.0    81    0.6   266      1.2   839.5   17.71      22    999.0
 213    5:40   47.3    82    0.1   268      0.8   839.4   17.71      42    999.0
 213    5:50   47.9    80    0.6   273      0.8   839.6   17.71      53    999.0

Return to Sagehen Creek graphs page.


Western Regional Climate Center,wrcc@dri.edu